Time;durP1;ratioP1;P1;durP2;ratioP2;P2;SDS_P1;SDS_P2;PMS_P1;PMS_P2;Temp;Humidity;BMP_temperature;BMP_pressure;BME280_temperature;BME280_humidity;BME280_pressure;Samples;Min_cycle;Max_cycle;Signal;HPM_P1;HPM_P2
2024/04/07 00:00:24;;;;;;;13.40;9.77;;;17.60;78.90;;;;;;5016469;28;20045;-77
2024/04/07 00:02:50;;;;;;;11.60;9.20;;;17.50;79.00;;;;;;5003855;28;20071;-77
2024/04/07 00:05:16;;;;;;;12.85;9.18;;;17.50;78.90;;;;;;5003440;28;20045;-77
2024/04/07 00:07:42;;;;;;;13.02;9.55;;;17.50;78.90;;;;;;5015613;28;20042;-77
2024/04/07 00:10:08;;;;;;;11.68;9.23;;;17.50;79.00;;;;;;5002656;28;20042;-77
2024/04/07 00:12:34;;;;;;;15.25;9.40;;;17.50;79.10;;;;;;5036598;28;20050;-76
2024/04/07 00:15:00;;;;;;;11.73;8.77;;;17.50;79.10;;;;;;4999173;28;20038;-78
2024/04/07 00:17:26;;;;;;;12.48;9.73;;;17.50;79.10;;;;;;4985364;28;20396;-76
2024/04/07 00:19:51;;;;;;;12.60;9.48;;;17.50;79.30;;;;;;5006210;28;20412;-76
2024/04/07 00:22:17;;;;;;;11.50;8.80;;;17.50;79.10;;;;;;5001962;28;20034;-76
2024/04/07 00:24:44;;;;;;;11.57;8.73;;;17.50;79.10;;;;;;5007052;28;20691;-76
2024/04/07 00:27:09;;;;;;;12.63;8.82;;;17.50;79.00;;;;;;5000192;28;20515;-76
2024/04/07 00:29:35;;;;;;;10.52;8.35;;;17.50;79.10;;;;;;4987408;28;20062;-76
2024/04/07 00:32:00;;;;;;;10.27;7.80;;;17.50;79.10;;;;;;4986785;28;20038;-76
2024/04/07 00:34:26;;;;;;;11.00;8.65;;;17.50;79.00;;;;;;5016065;28;25510;-76
2024/04/07 00:36:52;;;;;;;9.48;8.40;;;17.50;79.10;;;;;;4986389;28;20049;-77
2024/04/07 00:39:17;;;;;;;9.52;7.65;;;17.50;79.00;;;;;;4986287;28;20041;-77
2024/04/07 00:41:43;;;;;;;11.60;8.40;;;17.50;79.10;;;;;;5000763;28;20421;-76
2024/04/07 00:44:09;;;;;;;10.02;7.80;;;17.50;79.00;;;;;;5001321;28;20049;-77
2024/04/07 00:46:34;;;;;;;10.65;8.07;;;17.50;79.10;;;;;;4981096;28;20041;-76
2024/04/07 00:49:00;;;;;;;9.70;7.47;;;17.50;79.00;;;;;;4988647;28;20045;-76
2024/04/07 00:51:26;;;;;;;9.50;7.78;;;17.50;79.30;;;;;;5032610;28;20130;-76
2024/04/07 00:53:52;;;;;;;9.23;7.78;;;17.50;79.10;;;;;;5002475;28;20077;-76
2024/04/07 00:56:18;;;;;;;8.65;7.38;;;17.50;79.30;;;;;;5014178;28;20056;-78
2024/04/07 00:58:43;;;;;;;8.32;7.50;;;17.50;79.10;;;;;;5015743;28;20407;-77
2024/04/07 01:01:09;;;;;;;8.90;7.60;;;17.40;79.20;;;;;;4970323;28;20058;-77
2024/04/07 01:03:35;;;;;;;8.80;7.50;;;17.40;79.00;;;;;;5002302;28;20042;-77
2024/04/07 01:06:00;;;;;;;9.98;7.57;;;17.40;78.90;;;;;;5016151;28;20054;-76
2024/04/07 01:08:26;;;;;;;8.73;7.25;;;17.40;78.90;;;;;;5004017;28;20052;-76
2024/04/07 01:10:51;;;;;;;8.18;7.38;;;17.40;79.00;;;;;;4984662;28;21147;-76
2024/04/07 01:13:17;;;;;;;10.10;7.68;;;17.40;79.10;;;;;;5015936;28;20038;-76
2024/04/07 01:15:43;;;;;;;7.45;6.43;;;17.40;79.10;;;;;;5000646;28;22345;-77
2024/04/07 01:18:08;;;;;;;10.13;7.40;;;17.40;79.20;;;;;;5002933;28;20045;-77
2024/04/07 01:20:34;;;;;;;8.93;7.40;;;17.40;79.30;;;;;;4986639;28;20046;-77
2024/04/07 01:23:03;;;;;;;10.18;8.07;;;17.40;79.10;;;;;;4986848;28;20049;-77
2024/04/07 01:25:29;;;;;;;8.15;7.30;;;17.40;79.20;;;;;;4991310;28;20217;-77
2024/04/07 01:27:56;;;;;;;8.45;6.80;;;17.40;79.00;;;;;;4986332;28;20141;-77
2024/04/07 01:30:24;;;;;;;7.68;6.82;;;17.40;79.20;;;;;;4998870;28;20503;-77
2024/04/07 01:32:50;;;;;;;7.75;5.82;;;17.40;79.00;;;;;;5000002;28;20112;-77
2024/04/07 01:35:15;;;;;;;7.35;6.53;;;17.40;79.00;;;;;;5002235;28;20034;-77
2024/04/07 01:37:41;;;;;;;8.15;6.45;;;17.40;79.10;;;;;;4970342;28;20062;-77
2024/04/07 01:40:08;;;;;;;8.80;7.03;;;17.40;79.20;;;;;;5015552;28;20096;-78
2024/04/07 01:42:34;;;;;;;8.70;6.75;;;17.40;79.10;;;;;;5015354;28;20066;-77
2024/04/07 01:45:00;;;;;;;9.43;7.15;;;17.40;79.10;;;;;;5002266;28;20096;-77
2024/04/07 01:47:26;;;;;;;7.32;6.32;;;17.40;79.10;;;;;;4999653;28;20049;-77
2024/04/07 01:49:51;;;;;;;6.90;6.20;;;17.40;79.10;;;;;;5000729;28;20419;-77
2024/04/07 01:52:17;;;;;;;8.07;6.75;;;17.40;79.00;;;;;;5004438;28;20041;-77
2024/04/07 01:54:43;;;;;;;8.85;6.85;;;17.40;79.10;;;;;;5018423;28;20046;-76
2024/04/07 01:57:09;;;;;;;7.60;6.50;;;17.40;79.10;;;;;;5015751;28;20054;-78
2024/04/07 01:59:34;;;;;;;6.40;5.80;;;17.40;79.00;;;;;;4987753;28;20423;-77
2024/04/07 02:02:00;;;;;;;6.68;6.10;;;17.40;79.40;;;;;;5006046;28;20472;-77
2024/04/07 02:04:28;;;;;;;7.72;6.57;;;17.40;79.20;;;;;;5005461;28;20052;-77
2024/04/07 02:06:53;;;;;;;7.70;6.25;;;17.40;79.20;;;;;;5008758;28;20041;-77
2024/04/07 02:09:20;;;;;;;5.78;5.25;;;17.30;79.20;;;;;;4989776;28;20515;-77
2024/04/07 02:11:48;;;;;;;7.20;5.65;;;17.40;79.20;;;;;;5002643;28;20031;-77
2024/04/07 02:14:14;;;;;;;6.20;5.60;;;17.40;79.20;;;;;;4987478;28;20042;-77
2024/04/07 02:16:40;;;;;;;6.65;5.95;;;17.40;79.20;;;;;;5019763;28;20096;-77
2024/04/07 02:19:06;;;;;;;5.88;5.38;;;17.30;79.10;;;;;;5005946;28;20055;-77
2024/04/07 02:21:32;;;;;;;6.35;5.57;;;17.40;79.20;;;;;;5033582;28;20042;-77
2024/04/07 02:23:58;;;;;;;5.32;4.82;;;17.30;79.10;;;;;;5004758;28;20129;-77
2024/04/07 02:26:23;;;;;;;6.00;5.50;;;17.40;79.40;;;;;;4988945;28;20369;-77
2024/04/07 02:28:49;;;;;;;5.45;4.95;;;17.30;79.20;;;;;;5005909;28;20081;-77
2024/04/07 02:31:15;;;;;;;6.50;5.93;;;17.40;79.40;;;;;;5005162;28;20088;-77
2024/04/07 02:33:41;;;;;;;5.68;5.07;;;17.30;79.00;;;;;;5006243;28;20046;-77
2024/04/07 02:36:07;;;;;;;5.53;5.03;;;17.30;79.20;;;;;;5004215;28;20056;-77
2024/04/07 02:38:32;;;;;;;5.95;5.00;;;17.30;79.30;;;;;;5004204;28;20092;-77
2024/04/07 02:40:58;;;;;;;6.65;5.53;;;17.30;79.20;;;;;;4991964;28;20048;-78
2024/04/07 02:43:24;;;;;;;6.10;5.50;;;17.30;79.30;;;;;;5005518;28;20130;-77
2024/04/07 02:48:34;;;;;;;4.85;4.45;;;17.30;79.10;;;;;;5003858;28;20042;-77
2024/04/07 02:50:59;;;;;;;5.25;4.75;;;17.30;79.70;;;;;;5005257;28;20030;-77
2024/04/07 02:53:25;;;;;;;5.43;4.90;;;17.30;79.20;;;;;;5030787;28;20030;-77
2024/04/07 02:55:50;;;;;;;5.05;4.53;;;17.30;79.40;;;;;;5017977;28;20138;-78
2024/04/07 02:58:16;;;;;;;5.40;4.90;;;17.30;79.20;;;;;;5004842;28;20060;-78
2024/04/07 03:00:42;;;;;;;6.25;5.18;;;17.30;79.20;;;;;;5007665;28;20121;-77
2024/04/07 03:03:08;;;;;;;5.72;5.20;;;17.30;79.40;;;;;;5000968;28;20077;-77
2024/04/07 03:05:37;;;;;;;5.88;5.28;;;17.30;79.30;;;;;;5003760;28;20542;-77
2024/04/07 03:08:02;;;;;;;5.25;4.75;;;17.30;79.30;;;;;;5018632;28;20157;-77
2024/04/07 03:10:28;;;;;;;5.45;4.95;;;17.30;79.40;;;;;;5003448;28;20567;-78
2024/04/07 03:12:53;;;;;;;5.30;4.82;;;17.30;79.40;;;;;;5006151;28;20088;-77
2024/04/07 03:15:19;;;;;;;4.93;4.53;;;17.30;79.40;;;;;;5005380;28;20037;-77
2024/04/07 03:17:45;;;;;;;10.05;4.75;;;17.30;79.40;;;;;;5006395;28;20563;-78
2024/04/07 03:20:10;;;;;;;5.13;4.63;;;17.30;79.20;;;;;;4996374;28;20034;-77
2024/04/07 03:22:36;;;;;;;5.55;4.95;;;17.30;79.20;;;;;;5001263;28;20038;-77
2024/04/07 03:25:01;;;;;;;4.47;4.07;;;17.30;79.40;;;;;;5005184;28;20033;-76
2024/04/07 03:27:27;;;;;;;4.85;4.45;;;17.20;79.10;;;;;;5005977;28;20430;-77
2024/04/07 03:29:52;;;;;;;4.72;4.32;;;17.30;79.20;;;;;;5017493;28;20041;-77
2024/04/07 03:32:18;;;;;;;5.03;4.30;;;17.30;79.20;;;;;;4972738;28;20069;-77
2024/04/07 03:34:43;;;;;;;4.13;3.83;;;17.30;79.50;;;;;;5002460;28;20515;-77
2024/04/07 03:37:09;;;;;;;4.55;4.25;;;17.30;79.40;;;;;;4997049;28;20052;-77
2024/04/07 03:39:35;;;;;;;4.93;4.38;;;17.30;79.20;;;;;;5003485;28;20054;-77
2024/04/07 03:42:00;;;;;;;4.32;4.03;;;17.30;79.30;;;;;;4989361;28;20495;-77
2024/04/07 03:44:26;;;;;;;4.20;3.90;;;17.30;79.50;;;;;;4972369;28;20121;-77
2024/04/07 03:46:52;;;;;;;4.85;4.40;;;17.30;79.40;;;;;;5003800;28;20474;-77
2024/04/07 03:49:17;;;;;;;5.28;4.78;;;17.30;79.30;;;;;;4996239;28;20137;-77
2024/04/07 03:51:43;;;;;;;4.35;3.95;;;17.30;79.70;;;;;;5002724;28;20427;-77
2024/04/07 03:54:08;;;;;;;4.03;3.55;;;17.30;79.40;;;;;;4986761;28;20073;-77
2024/04/07 03:56:34;;;;;;;4.10;3.70;;;17.30;79.50;;;;;;5004582;28;20482;-77
2024/04/07 03:58:59;;;;;;;3.80;3.50;;;17.30;79.60;;;;;;4988412;28;20081;-77
2024/04/07 04:01:26;;;;;;;3.80;3.40;;;17.20;79.70;;;;;;4987443;28;20050;-77
2024/04/07 04:03:52;;;;;;;3.45;3.10;;;17.20;79.30;;;;;;5003611;28;20124;-77
2024/04/07 04:06:18;;;;;;;3.00;2.80;;;17.20;79.30;;;;;;5003331;28;20130;-77
2024/04/07 04:08:44;;;;;;;3.67;3.30;;;17.30;79.50;;;;;;5001676;28;20057;-77
2024/04/07 04:11:11;;;;;;;3.53;3.22;;;17.20;79.20;;;;;;4982555;28;20033;-77
2024/04/07 04:13:36;;;;;;;3.72;3.42;;;17.30;79.40;;;;;;5003981;28;20049;-77
2024/04/07 04:16:02;;;;;;;3.63;3.33;;;17.30;79.40;;;;;;4994316;28;20526;-77
2024/04/07 04:18:28;;;;;;;3.85;3.20;;;17.30;79.20;;;;;;4999191;28;20045;-77
2024/04/07 04:20:54;;;;;;;2.75;2.55;;;17.30;79.30;;;;;;4999646;28;20073;-77
2024/04/07 04:23:19;;;;;;;3.42;2.78;;;17.30;79.30;;;;;;4998126;28;20046;-78
2024/04/07 04:25:55;;;;;;;3.35;3.10;;;17.30;79.40;;;;;;5000212;28;20500;-78
2024/04/07 04:28:21;;;;;;;3.55;3.30;;;17.30;79.10;;;;;;4987615;28;20377;-78
2024/04/07 04:31:09;;;;;;;3.40;3.17;;;17.30;79.20;;;;;;5021413;28;20522;-77
2024/04/07 04:33:34;;;;;;;3.00;2.80;;;17.30;79.30;;;;;;5029664;28;20129;-78
2024/04/07 04:36:00;;;;;;;3.60;3.30;;;17.30;79.10;;;;;;5002384;28;20168;-77
2024/04/07 04:38:26;;;;;;;3.38;2.92;;;17.30;79.20;;;;;;4999998;28;20032;-78
2024/04/07 04:40:55;;;;;;;2.97;2.78;;;17.20;79.20;;;;;;5003872;28;20034;-77
2024/04/07 04:43:21;;;;;;;2.83;2.63;;;17.30;79.40;;;;;;5002997;28;20077;-77
2024/04/07 04:45:48;;;;;;;3.03;2.83;;;17.30;79.40;;;;;;4981186;28;20064;-77
2024/04/07 04:48:14;;;;;;;3.53;3.22;;;17.30;79.40;;;;;;5015196;28;20592;-78
2024/04/07 04:50:39;;;;;;;2.72;2.53;;;17.30;79.80;;;;;;4984279;28;20050;-77
2024/04/07 04:53:05;;;;;;;3.15;2.58;;;17.30;79.70;;;;;;4986973;28;20408;-77
2024/04/07 04:55:33;;;;;;;2.55;2.35;;;17.30;79.20;;;;;;5001005;28;20053;-78
2024/04/07 04:57:59;;;;;;;2.88;2.67;;;17.30;79.20;;;;;;5002753;28;20661;-77
2024/04/07 05:00:27;;;;;;;2.55;2.20;;;17.30;79.30;;;;;;5017595;28;20123;-78
2024/04/07 05:02:53;;;;;;;2.70;2.50;;;17.30;79.40;;;;;;5012062;28;20133;-77
2024/04/07 05:05:18;;;;;;;3.53;2.67;;;17.30;79.40;;;;;;4997226;28;20477;-78
2024/04/07 05:07:44;;;;;;;3.25;2.65;;;17.30;79.70;;;;;;5018061;28;20042;-78
2024/04/07 05:10:09;;;;;;;3.00;2.80;;;17.30;79.70;;;;;;5004652;28;20050;-77
2024/04/07 05:12:35;;;;;;;2.83;2.63;;;17.30;79.40;;;;;;4985436;28;20061;-77
2024/04/07 05:15:01;;;;;;;2.50;2.30;;;17.30;79.30;;;;;;4968608;28;20492;-78
2024/04/07 05:17:26;;;;;;;2.60;2.40;;;17.30;79.50;;;;;;5030811;28;20034;-77
2024/04/07 05:19:52;;;;;;;3.22;2.63;;;17.30;79.40;;;;;;5004253;28;20503;-78
2024/04/07 05:22:17;;;;;;;2.67;2.47;;;17.30;79.40;;;;;;5001505;28;20050;-78
2024/04/07 05:24:43;;;;;;;2.40;2.20;;;17.20;79.20;;;;;;5002018;28;20045;-78
2024/04/07 05:27:09;;;;;;;2.72;2.53;;;17.20;79.20;;;;;;5004304;28;20557;-77
2024/04/07 05:29:35;;;;;;;2.75;2.50;;;17.30;79.10;;;;;;5007707;28;20038;-77
2024/04/07 05:32:00;;;;;;;2.60;2.40;;;17.30;79.20;;;;;;5004271;28;20038;-77
2024/04/07 05:34:28;;;;;;;2.80;2.33;;;17.30;79.00;;;;;;5005285;28;20137;-77
2024/04/07 05:36:53;;;;;;;2.97;2.50;;;17.20;78.80;;;;;;5007990;28;20041;-77
2024/04/07 05:39:19;;;;;;;2.60;2.40;;;17.30;79.10;;;;;;5007248;28;20037;-78
2024/04/07 05:41:44;;;;;;;3.13;2.83;;;17.30;79.60;;;;;;4994827;28;20453;-77
2024/04/07 05:44:10;;;;;;;2.55;2.35;;;17.30;79.40;;;;;;5035440;28;20046;-77
2024/04/07 05:46:35;;;;;;;2.88;2.67;;;17.30;79.80;;;;;;5004342;28;20389;-77
2024/04/07 05:49:01;;;;;;;2.20;2.00;;;17.30;79.40;;;;;;5004301;28;20038;-77
2024/04/07 05:51:26;;;;;;;2.85;2.65;;;17.30;80.60;;;;;;5006507;28;20132;-78
2024/04/07 05:53:52;;;;;;;3.13;2.80;;;17.30;81.10;;;;;;5005144;28;20420;-78
2024/04/07 05:56:18;;;;;;;2.95;2.70;;;17.30;81.30;;;;;;4651399;28;9999988;-78
2024/04/07 05:58:43;;;;;;;2.60;2.40;;;17.30;81.70;;;;;;4643149;28;10000454;-77
2024/04/07 06:01:09;;;;;;;2.40;2.20;;;17.40;81.20;;;;;;4657107;28;9999668;-78
2024/04/07 06:03:35;;;;;;;2.13;1.92;;;17.40;81.50;;;;;;5001490;28;20033;-77
2024/04/07 06:06:04;;;;;;;2.47;2.28;;;17.40;81.30;;;;;;5000294;28;20046;-78
2024/04/07 06:08:29;;;;;;;3.38;1.95;;;17.40;81.50;;;;;;5031393;28;20093;-78
2024/04/07 06:10:55;;;;;;;2.22;2.03;;;17.40;81.30;;;;;;4973883;28;20527;-77
2024/04/07 06:13:20;;;;;;;1.88;1.75;;;17.40;81.20;;;;;;4998860;28;20104;-77
2024/04/07 06:15:46;;;;;;;2.08;1.98;;;17.40;81.10;;;;;;5011683;28;20145;-77
2024/04/07 06:18:11;;;;;;;3.83;2.40;;;17.40;81.10;;;;;;4981738;28;20580;-78
2024/04/07 06:20:37;;;;;;;2.15;2.05;;;17.40;81.00;;;;;;4969802;28;20065;-77
2024/04/07 06:23:03;;;;;;;2.05;1.70;;;17.40;81.30;;;;;;5018284;28;20285;-77
2024/04/07 06:25:29;;;;;;;2.55;2.35;;;17.40;81.10;;;;;;5000902;28;20042;-77
2024/04/07 06:27:54;;;;;;;2.85;2.33;;;17.40;81.40;;;;;;5001618;28;20046;-78
2024/04/07 06:30:21;;;;;;;2.28;2.10;;;17.40;81.30;;;;;;5000759;28;20049;-78
2024/04/07 06:32:46;;;;;;;2.17;2.08;;;17.40;81.00;;;;;;4970105;28;20054;-78
2024/04/07 06:35:12;;;;;;;3.47;2.00;;;17.40;81.00;;;;;;5029330;28;20053;-78
2024/04/07 06:37:38;;;;;;;4.03;2.13;;;17.50;81.10;;;;;;4989647;28;20542;-78
2024/04/07 06:40:04;;;;;;;2.25;2.00;;;17.50;81.10;;;;;;5018223;28;20064;-78
2024/04/07 06:42:30;;;;;;;2.20;2.10;;;17.40;80.70;;;;;;5011691;28;20049;-78
2024/04/07 06:44:56;;;;;;;1.90;1.75;;;17.50;81.10;;;;;;5015208;28;20038;-78
2024/04/07 06:47:22;;;;;;;1.88;1.77;;;17.50;80.60;;;;;;4999899;28;20551;-78
2024/04/07 06:49:51;;;;;;;1.80;1.70;;;17.50;81.00;;;;;;5001795;28;20137;-78
2024/04/07 06:52:17;;;;;;;2.00;1.80;;;17.50;81.00;;;;;;5000660;28;20034;-78
2024/04/07 06:54:43;;;;;;;3.45;2.38;;;17.50;81.00;;;;;;4968460;28;20054;-78
2024/04/07 06:57:09;;;;;;;1.98;1.88;;;17.40;80.70;;;;;;4983908;28;20045;-77
2024/04/07 06:59:35;;;;;;;1.90;1.75;;;17.40;80.80;;;;;;5002294;28;20044;-78
2024/04/07 07:02:02;;;;;;;1.95;1.73;;;17.50;80.90;;;;;;5002927;28;20435;-78
2024/04/07 07:04:28;;;;;;;2.03;1.52;;;17.50;80.80;;;;;;4999861;28;20049;-78
2024/04/07 07:06:53;;;;;;;1.67;1.58;;;17.50;80.90;;;;;;5029116;28;20154;-78
2024/04/07 07:09:19;;;;;;;1.80;1.70;;;17.50;80.50;;;;;;4984897;28;20050;-78
2024/04/07 07:11:46;;;;;;;1.50;1.40;;;17.50;80.70;;;;;;4984942;28;20408;-79
2024/04/07 07:14:11;;;;;;;2.00;1.85;;;17.50;80.70;;;;;;5001414;28;20038;-78
2024/04/07 07:16:37;;;;;;;2.03;1.58;;;17.50;80.60;;;;;;4983244;28;20538;-78
2024/04/07 07:19:02;;;;;;;1.90;1.80;;;17.50;80.30;;;;;;5003796;28;20511;-78
2024/04/07 07:21:28;;;;;;;2.00;1.60;;;17.50;80.30;;;;;;4982140;28;20112;-77
2024/04/07 07:23:54;;;;;;;1.75;1.65;;;17.50;80.30;;;;;;5000643;28;20669;-77
2024/04/07 07:26:19;;;;;;;2.15;1.95;;;17.50;80.10;;;;;;4983838;28;20042;-77
2024/04/07 07:28:45;;;;;;;1.92;1.67;;;17.50;80.00;;;;;;5028746;28;20851;-78
2024/04/07 07:31:10;;;;;;;1.63;1.52;;;17.60;80.10;;;;;;5012033;28;20111;-78
2024/04/07 07:33:36;;;;;;;1.50;1.40;;;17.60;79.60;;;;;;4983705;28;20041;-78
2024/04/07 07:36:03;;;;;;;2.15;1.88;;;17.60;79.40;;;;;;5000524;28;20515;-78
2024/04/07 07:38:28;;;;;;;1.70;1.60;;;17.60;79.50;;;;;;4999546;28;20042;-78
2024/04/07 07:40:54;;;;;;;1.48;1.38;;;17.60;79.20;;;;;;5003283;28;20050;-78
2024/04/07 07:43:20;;;;;;;1.80;1.70;;;17.60;79.40;;;;;;5000077;28;20412;-80
2024/04/07 07:45:49;;;;;;;2.03;1.35;;;17.60;78.70;;;;;;5002458;28;20054;-80
2024/04/07 07:48:15;;;;;;;2.50;1.50;;;17.40;77.70;;;;;;4984964;28;20038;-79
2024/04/07 07:50:43;;;;;;;2.72;1.45;;;17.20;77.90;;;;;;4999829;28;20045;-80
2024/04/07 07:53:09;;;;;;;2.65;1.35;;;17.10;76.70;;;;;;5013710;28;20048;-79
2024/04/07 07:55:36;;;;;;;3.08;1.35;;;16.70;77.90;;;;;;5000401;28;20152;-79
2024/04/07 07:58:02;;;;;;;4.50;1.63;;;16.50;78.20;;;;;;5003792;28;20038;-80
2024/04/07 08:00:28;;;;;;;3.65;1.60;;;16.30;78.50;;;;;;5014957;28;20053;-79
2024/04/07 08:02:54;;;;;;;2.85;1.33;;;16.20;78.80;;;;;;4974145;28;20042;-79
2024/04/07 08:05:19;;;;;;;4.85;1.55;;;16.20;78.80;;;;;;4972126;28;20042;-79
2024/04/07 08:07:45;;;;;;;3.05;1.38;;;16.20;78.70;;;;;;4996258;28;20137;-80
2024/04/07 08:10:11;;;;;;;3.28;1.13;;;16.10;78.70;;;;;;5029455;28;20051;-79
2024/04/07 08:12:38;;;;;;;6.18;1.60;;;16.10;79.10;;;;;;4999149;28;20111;-80
2024/04/07 08:15:04;;;;;;;3.53;1.73;;;16.10;78.40;;;;;;4956704;28;20505;-80
2024/04/07 08:17:30;;;;;;;3.88;1.30;;;16.10;78.30;;;;;;4997316;28;20049;-79
2024/04/07 08:19:55;;;;;;;4.15;1.45;;;16.10;77.90;;;;;;4967129;28;20107;-79
2024/04/07 08:22:21;;;;;;;3.13;1.40;;;16.10;77.40;;;;;;5010832;28;20034;-80
2024/04/07 08:24:47;;;;;;;3.20;1.20;;;16.10;76.70;;;;;;4967079;28;20405;-79
2024/04/07 08:27:12;;;;;;;2.97;1.10;;;16.10;77.30;;;;;;4999273;28;20759;-79
2024/04/07 08:29:38;;;;;;;4.60;1.52;;;16.20;77.40;;;;;;4997318;28;20041;-77
2024/04/07 08:32:04;;;;;;;3.25;1.25;;;16.30;77.40;;;;;;5014757;28;20038;-77
2024/04/07 08:34:29;;;;;;;3.28;1.35;;;16.50;77.40;;;;;;5003428;28;20138;-77
2024/04/07 08:36:55;;;;;;;4.80;1.35;;;16.80;77.20;;;;;;5002120;28;20117;-77
2024/04/07 08:39:21;;;;;;;3.95;1.10;;;16.90;76.70;;;;;;5004666;28;20504;-77
2024/04/07 08:41:46;;;;;;;4.20;1.30;;;17.00;76.20;;;;;;4986126;28;20130;-77
2024/04/07 08:44:15;;;;;;;4.32;1.27;;;17.10;75.70;;;;;;4986745;28;20454;-77
2024/04/07 08:46:41;;;;;;;2.95;1.15;;;17.20;75.80;;;;;;5016116;28;20041;-77
2024/04/07 08:49:09;;;;;;;3.58;1.13;;;17.20;75.90;;;;;;5004740;28;20494;-77
2024/04/07 08:51:38;;;;;;;3.72;1.30;;;17.30;76.40;;;;;;5004622;28;20053;-78
2024/04/07 08:54:04;;;;;;;1.77;1.13;;;17.40;75.90;;;;;;5004440;28;20033;-77
2024/04/07 08:56:30;;;;;;;2.53;1.40;;;17.40;75.60;;;;;;5003426;28;20050;-77
2024/04/07 08:58:56;;;;;;;3.33;1.10;;;17.50;75.50;;;;;;5031414;28;20050;-77
2024/04/07 09:01:22;;;;;;;1.73;1.02;;;17.50;75.60;;;;;;5017134;28;20073;-77
2024/04/07 09:03:47;;;;;;;3.47;1.27;;;17.50;75.50;;;;;;5017919;28;20478;-77
2024/04/07 09:06:13;;;;;;;1.88;0.90;;;17.60;75.40;;;;;;5019501;28;20069;-77
2024/04/07 09:08:38;;;;;;;1.55;0.98;;;17.60;75.30;;;;;;4985273;28;20471;-77
2024/04/07 09:11:04;;;;;;;3.63;1.10;;;17.70;75.10;;;;;;5032564;28;20042;-77
2024/04/07 09:13:29;;;;;;;2.25;1.08;;;17.70;76.10;;;;;;4987351;28;20121;-77
2024/04/07 09:15:55;;;;;;;1.75;0.90;;;17.70;75.70;;;;;;5002972;28;20096;-77
2024/04/07 09:18:21;;;;;;;2.40;1.02;;;17.70;75.70;;;;;;4968842;28;20129;-77
2024/04/07 09:20:46;;;;;;;3.08;1.60;;;17.70;75.40;;;;;;5002111;28;20575;-78
2024/04/07 09:23:13;;;;;;;2.33;1.10;;;17.70;75.70;;;;;;5003336;28;20137;-77
2024/04/07 09:25:38;;;;;;;1.83;1.10;;;17.70;75.70;;;;;;5001794;28;20397;-77
2024/04/07 09:28:04;;;;;;;1.95;1.13;;;17.70;75.70;;;;;;5004192;28;20045;-77
2024/04/07 09:30:32;;;;;;;2.35;1.15;;;17.70;75.70;;;;;;4971456;28;20042;-77
2024/04/07 09:32:58;;;;;;;2.55;1.02;;;17.70;75.60;;;;;;4998556;28;20137;-77
2024/04/07 09:35:24;;;;;;;2.35;1.13;;;17.80;75.70;;;;;;4986283;28;20136;-77
2024/04/07 09:37:50;;;;;;;1.70;0.90;;;17.80;75.40;;;;;;5033347;28;20081;-77
2024/04/07 09:40:16;;;;;;;1.58;1.10;;;17.90;75.60;;;;;;5003857;28;20582;-77
2024/04/07 09:42:41;;;;;;;1.50;0.80;;;17.80;75.60;;;;;;4984165;28;20521;-77
2024/04/07 09:45:09;;;;;;;1.95;1.08;;;17.90;75.70;;;;;;5016206;28;20117;-77
2024/04/07 09:47:36;;;;;;;1.55;1.00;;;17.90;75.50;;;;;;5003079;28;20093;-77
2024/04/07 09:50:06;;;;;;;1.83;0.77;;;17.90;75.50;;;;;;5009183;28;20126;-77
2024/04/07 09:52:33;;;;;;;2.08;1.00;;;18.00;75.50;;;;;;5003940;28;20042;-77
2024/04/07 09:55:03;;;;;;;1.58;0.90;;;18.00;75.50;;;;;;5003073;28;20100;-77
2024/04/07 09:57:29;;;;;;;2.42;0.77;;;17.90;75.70;;;;;;5031656;28;20515;-77
2024/04/07 09:59:55;;;;;;;1.00;0.68;;;17.90;75.70;;;;;;5000096;28;20064;-77
2024/04/07 10:02:21;;;;;;;1.02;0.70;;;17.90;75.80;;;;;;4971766;28;20041;-77
2024/04/07 10:04:46;;;;;;;2.13;1.30;;;18.00;75.60;;;;;;4981589;28;20108;-77
2024/04/07 10:07:12;;;;;;;1.67;0.90;;;18.00;75.90;;;;;;5000682;28;20045;-77
2024/04/07 10:09:38;;;;;;;1.13;0.95;;;18.00;75.60;;;;;;5000345;28;20104;-77
2024/04/07 10:12:04;;;;;;;2.30;1.52;;;18.00;75.50;;;;;;4982454;28;20495;-77
2024/04/07 10:14:40;;;;;;;4.85;1.58;;;18.00;75.70;;;;;;4679235;28;10001249;-77
2024/04/07 10:17:10;;;;;;;1.73;1.20;;;18.00;75.80;;;;;;4994035;28;20248;-76
2024/04/07 10:19:42;;;;;;;1.67;1.23;;;18.00;76.30;;;;;;4980190;28;20137;-78
2024/04/07 10:22:08;;;;;;;1.25;0.80;;;18.10;79.00;;;;;;4984533;28;20057;-78
2024/04/07 10:24:34;;;;;;;1.27;0.73;;;18.10;79.20;;;;;;4984515;28;20053;-78
2024/04/07 10:27:00;;;;;;;1.10;0.82;;;18.20;78.40;;;;;;5000318;28;20123;-78
2024/04/07 10:29:27;;;;;;;2.55;1.05;;;18.20;77.20;;;;;;4999614;28;20097;-78
2024/04/07 10:31:52;;;;;;;1.17;0.77;;;18.30;76.30;;;;;;5000570;28;20042;-78
2024/04/07 10:34:18;;;;;;;2.35;1.27;;;18.30;76.00;;;;;;5030785;28;20053;-78
2024/04/07 10:36:53;;;;;;;2.30;0.70;;;18.40;75.90;;;;;;5003812;28;22585;-77
2024/04/07 10:39:26;;;;;;;1.33;0.80;;;18.40;75.60;;;;;;5002949;28;20061;-77
2024/04/07 10:41:51;;;;;;;1.17;0.50;;;18.40;75.60;;;;;;4988004;28;20042;-77
2024/04/07 10:44:18;;;;;;;1.02;0.73;;;18.40;75.40;;;;;;4985359;28;20081;-77
2024/04/07 10:46:44;;;;;;;2.10;1.00;;;18.40;75.50;;;;;;4980713;28;20152;-78
2024/04/07 10:49:09;;;;;;;0.93;0.73;;;18.50;75.50;;;;;;5016616;28;20208;-77
2024/04/07 10:51:36;;;;;;;1.40;0.82;;;18.50;75.30;;;;;;4985537;28;20034;-77
2024/04/07 10:54:02;;;;;;;1.38;0.88;;;18.50;75.50;;;;;;4984315;28;20046;-77
2024/04/07 10:56:28;;;;;;;1.90;0.50;;;18.50;75.20;;;;;;4985537;28;20511;-77
2024/04/07 10:58:55;;;;;;;1.27;0.60;;;18.50;75.20;;;;;;4984586;28;20050;-77
2024/04/07 11:01:21;;;;;;;1.80;0.85;;;18.50;75.10;;;;;;5001027;28;20046;-77
2024/04/07 11:03:46;;;;;;;0.80;0.63;;;18.50;75.20;;;;;;4997580;28;20092;-77
2024/04/07 11:06:12;;;;;;;2.25;0.80;;;18.50;75.30;;;;;;4985487;28;20046;-77
2024/04/07 11:08:38;;;;;;;1.27;0.75;;;18.50;74.90;;;;;;4982719;28;20041;-77
2024/04/07 11:11:04;;;;;;;1.30;0.45;;;18.50;74.00;;;;;;4969609;28;20530;-78
2024/04/07 11:13:29;;;;;;;1.20;0.70;;;18.50;73.80;;;;;;4986911;28;20499;-78
2024/04/07 11:15:55;;;;;;;1.05;0.50;;;18.50;73.70;;;;;;5002741;28;20046;-77
2024/04/07 11:18:21;;;;;;;1.33;0.70;;;18.50;74.40;;;;;;4967462;28;20046;-78
2024/04/07 11:20:48;;;;;;;0.68;0.50;;;18.50;73.50;;;;;;4998699;28;20069;-76
2024/04/07 11:23:14;;;;;;;0.75;0.57;;;18.60;73.40;;;;;;4983399;28;20743;-77
2024/04/07 11:25:43;;;;;;;1.98;0.70;;;18.60;73.50;;;;;;4999839;28;20084;-77
2024/04/07 11:28:10;;;;;;;1.35;0.60;;;18.50;73.60;;;;;;4999578;28;20054;-77
2024/04/07 11:30:49;;;;;;;0.90;0.60;;;18.60;73.60;;;;;;5002576;28;20130;-77
2024/04/07 11:33:15;;;;;;;0.95;0.60;;;18.60;73.30;;;;;;4967455;28;20101;-77
2024/04/07 11:35:40;;;;;;;0.80;0.32;;;18.60;73.40;;;;;;4984103;28;20042;-77
2024/04/07 11:38:06;;;;;;;0.93;0.47;;;18.60;73.50;;;;;;4993471;28;20042;-77
2024/04/07 11:40:32;;;;;;;0.75;0.50;;;18.60;73.50;;;;;;4998384;28;20065;-78
2024/04/07 11:42:58;;;;;;;0.73;0.60;;;18.60;73.40;;;;;;4998514;28;20045;-77
2024/04/07 11:45:25;;;;;;;0.45;0.30;;;18.60;73.50;;;;;;4985189;28;20041;-77
2024/04/07 11:47:53;;;;;;;1.40;0.80;;;18.60;73.40;;;;;;5013625;28;20424;-77
2024/04/07 11:50:19;;;;;;;0.63;0.60;;;18.60;73.50;;;;;;5001005;28;20562;-77
2024/04/07 11:52:45;;;;;;;0.60;0.40;;;18.60;73.60;;;;;;5015335;28;20125;-77
2024/04/07 11:55:11;;;;;;;0.80;0.63;;;18.60;73.50;;;;;;5001906;28;20042;-77
2024/04/07 11:57:36;;;;;;;1.50;0.47;;;18.60;73.50;;;;;;4999240;28;20068;-77
2024/04/07 12:00:04;;;;;;;1.02;0.50;;;18.60;74.30;;;;;;4999322;28;20185;-77
2024/04/07 12:02:30;;;;;;;0.75;0.40;;;18.70;73.50;;;;;;4999381;28;20594;-77
2024/04/07 12:04:55;;;;;;;2.38;0.95;;;18.70;73.70;;;;;;4999833;28;20052;-77
2024/04/07 12:07:21;;;;;;;0.52;0.40;;;18.70;73.50;;;;;;5001038;28;20046;-77
2024/04/07 12:09:47;;;;;;;0.60;0.40;;;18.70;73.40;;;;;;4998182;28;21609;-77
2024/04/07 12:12:13;;;;;;;0.65;0.43;;;18.70;73.50;;;;;;5025860;28;20037;-77
2024/04/07 12:14:39;;;;;;;1.45;0.85;;;18.70;73.40;;;;;;5001821;28;20054;-77
2024/04/07 12:17:05;;;;;;;0.80;0.43;;;18.70;73.30;;;;;;5024561;28;20054;-77
2024/04/07 12:19:30;;;;;;;1.05;0.40;;;18.70;73.30;;;;;;5011546;28;20099;-77
2024/04/07 12:21:57;;;;;;;0.57;0.40;;;18.70;73.60;;;;;;5001580;28;20415;-77
2024/04/07 12:24:23;;;;;;;1.20;0.43;;;18.70;73.80;;;;;;4998704;28;20536;-77
2024/04/07 12:26:50;;;;;;;0.75;0.60;;;18.70;73.80;;;;;;4985117;28;20062;-78
2024/04/07 12:29:16;;;;;;;0.93;0.47;;;18.70;74.00;;;;;;5000342;28;20507;-77
2024/04/07 12:31:42;;;;;;;0.68;0.45;;;18.70;74.00;;;;;;4984982;28;20038;-77
2024/04/07 12:34:07;;;;;;;0.73;0.73;;;18.70;74.00;;;;;;5023520;28;20510;-77
2024/04/07 12:36:33;;;;;;;0.77;0.60;;;18.70;74.00;;;;;;4996030;28;20050;-78
2024/04/07 12:39:04;;;;;;;0.70;0.40;;;18.70;74.10;;;;;;5008922;28;20526;-77
2024/04/07 12:41:34;;;;;;;0.50;0.50;;;18.60;74.20;;;;;;4984508;28;20128;-76